createdAt,value
2018-12-27T00:00:55.912Z,102114.52
2018-12-27T00:03:23.100Z,102107.95
2018-12-27T00:06:09.465Z,102105.17
2018-12-27T00:08:36.431Z,102110.97
2018-12-27T00:11:03.158Z,102113.56
2018-12-27T00:13:30.226Z,102111.42
2018-12-27T00:16:16.838Z,102110.97
2018-12-27T00:19:03.188Z,102111.73
2018-12-27T00:24:02.565Z,102111.77
2018-12-27T00:26:49.015Z,102106.48
2018-12-27T00:29:35.508Z,102101.28
2018-12-27T00:34:34.836Z,102097.33
2018-12-27T00:37:01.473Z,102098.16
2018-12-27T00:39:28.177Z,102093.73
2018-12-27T00:41:54.814Z,102087.25
2018-12-27T00:44:21.520Z,102092.91
2018-12-27T00:49:20.607Z,102078.89
2018-12-27T00:51:47.243Z,102078.95
2018-12-27T00:56:46.723Z,102079.77
2018-12-27T00:59:13.704Z,102080.60
2018-12-27T01:04:13.116Z,102081.91
2018-12-27T01:06:40.102Z,102081.06
2018-12-27T01:09:06.803Z,102079.19
2018-12-27T01:11:33.440Z,102079.75
2018-12-27T01:14:00.088Z,102087.19
2018-12-27T01:19:00.251Z,102080.63
2018-12-27T01:21:27.915Z,102080.25
2018-12-27T01:26:27.008Z,102081.09
2018-12-27T01:28:53.659Z,102081.56
2018-12-27T01:33:53.422Z,102079.88
2018-12-27T01:36:20.058Z,102078.49
2018-12-27T01:38:47.485Z,102076.83
2018-12-27T01:41:14.431Z,102073.77
2018-12-27T01:43:41.374Z,102075.18
2018-12-27T01:48:41.306Z,102074.22
2018-12-27T01:51:07.941Z,102079.05
2018-12-27T01:56:07.012Z,102075.61
2018-12-27T01:58:33.649Z,102082.97
2018-12-27T02:01:00.464Z,102084.36
2018-12-27T02:03:27.102Z,102079.91
2018-12-27T02:05:53.735Z,102086.81
2018-12-27T02:10:52.727Z,102085.56
2018-12-27T02:13:19.378Z,102083.42
2018-12-27T02:15:46.104Z,102085.99
2018-12-27T02:18:12.738Z,102084.69
2018-12-27T02:20:39.377Z,102081.62
2018-12-27T02:23:25.753Z,102081.59
2018-12-27T02:25:52.658Z,102089.06
2018-12-27T02:28:19.305Z,102085.59
2018-12-27T02:30:46.000Z,102082.95
2018-12-27T02:33:12.635Z,102084.17
2018-12-27T02:35:39.552Z,102084.13
2018-12-27T02:40:39.815Z,102076.30
2018-12-27T02:43:06.469Z,102072.02
2018-12-27T02:48:06.484Z,102073.19
2018-12-27T02:50:33.118Z,102076.66
2018-12-27T02:52:59.821Z,102075.42
2018-12-27T02:55:26.460Z,102074.09
2018-12-27T02:57:53.393Z,102068.36
2018-12-27T03:00:20.082Z,102061.42
2018-12-27T03:02:46.718Z,102067.17
2018-12-27T03:05:33.027Z,102061.82
2018-12-27T03:07:59.668Z,102060.51
2018-12-27T03:10:26.320Z,102053.06
2018-12-27T03:15:26.166Z,102054.91
2018-12-27T03:17:52.798Z,102047.49
2018-12-27T03:22:52.173Z,102033.56
2018-12-27T03:25:18.811Z,102024.81
2018-12-27T03:27:45.519Z,102024.36
2018-12-27T03:30:12.173Z,102036.95
2018-12-27T03:32:38.941Z,102034.81
2018-12-27T03:35:05.653Z,102032.63
2018-12-27T03:37:32.688Z,102035.73
2018-12-27T03:39:59.336Z,102037.37
2018-12-27T03:44:58.549Z,102030.81
2018-12-27T03:47:25.210Z,102029.59
2018-12-27T03:52:24.626Z,102030.47
2018-12-27T03:54:51.586Z,102023.88
2018-12-27T03:57:18.352Z,102022.55
2018-12-27T03:59:44.987Z,102025.61
2018-12-27T04:02:11.622Z,102027.36
2018-12-27T04:07:11.016Z,102019.59
2018-12-27T04:09:37.958Z,102019.91
2018-12-27T04:14:37.786Z,102015.61
2018-12-27T04:17:45.971Z,102019.51
2018-12-27T04:20:32.878Z,102017.83
2018-12-27T04:23:19.361Z,102016.06
2018-12-27T04:26:05.710Z,102011.21
2018-12-27T04:28:52.409Z,102013.39
2018-12-27T04:32:00.170Z,102007.75
2018-12-27T04:37:40.672Z,102007.77
2018-12-27T04:40:07.532Z,102004.70
2018-12-27T04:42:34.273Z,101998.95
2018-12-27T04:45:20.714Z,102002.89
2018-12-27T04:47:47.743Z,101997.27
2018-12-27T04:50:14.685Z,101997.23
2018-12-27T04:55:14.511Z,101992.41
2018-12-27T04:57:41.148Z,101999.91
2018-12-27T05:00:08.025Z,101999.05
2018-12-27T05:02:34.661Z,101996.33
2018-12-27T05:05:01.293Z,101996.33
2018-12-27T05:07:28.008Z,101988.01
2018-12-27T05:09:54.749Z,101985.83
2018-12-27T05:12:41.178Z,101980.58
2018-12-27T05:15:07.814Z,101983.16
2018-12-27T05:17:54.505Z,101979.16
2018-12-27T05:20:40.860Z,101981.34
2018-12-27T05:23:27.352Z,101978.71
2018-12-27T05:26:13.836Z,101978.36
2018-12-27T05:28:40.573Z,101975.23
2018-12-27T05:31:26.948Z,101973.96
2018-12-27T05:34:13.420Z,101979.54
2018-12-27T05:36:59.779Z,101975.86
2018-12-27T05:39:26.599Z,101976.23
2018-12-27T05:41:53.539Z,101983.19
2018-12-27T05:44:40.185Z,101983.56
2018-12-27T05:47:07.250Z,102000.12
2018-12-27T05:49:34.254Z,101993.16
2018-12-27T05:52:01.051Z,101995.29
2018-12-27T05:54:27.750Z,101993.88
2018-12-27T05:57:14.275Z,101995.17
2018-12-27T06:00:00.942Z,101994.30
2018-12-27T06:05:20.503Z,101993.14
2018-12-27T06:10:19.939Z,101992.50
2018-12-27T06:13:06.428Z,101999.95
2018-12-27T06:15:33.167Z,102000.55
2018-12-27T06:17:59.906Z,101998.12
2018-12-27T06:22:59.774Z,101995.33
2018-12-27T06:25:26.407Z,101995.05
2018-12-27T06:28:13.172Z,102002.50
2018-12-27T06:30:59.824Z,102008.84
2018-12-27T06:33:26.581Z,102000.68
2018-12-27T06:36:13.414Z,101997.91
2018-12-27T06:38:41.065Z,102008.30
2018-12-27T06:41:08.061Z,102001.22
2018-12-27T06:43:34.831Z,101994.27
2018-12-27T06:46:21.296Z,101999.33
2018-12-27T06:48:48.251Z,102000.94
2018-12-27T06:51:34.742Z,101992.65
2018-12-27T06:54:21.105Z,101999.80
2018-12-27T06:57:07.659Z,101997.61
2018-12-27T06:59:34.283Z,102003.73
2018-12-27T07:02:21.425Z,102004.48
2018-12-27T07:04:49.046Z,102003.70
2018-12-27T07:07:17.736Z,101995.63
2018-12-27T07:09:44.775Z,101998.45
2018-12-27T07:12:31.277Z,101994.90
2018-12-27T07:14:58.038Z,102003.70
2018-12-27T07:17:24.679Z,101997.18
2018-12-27T07:19:51.443Z,101992.93
2018-12-27T07:22:18.203Z,101987.32
2018-12-27T07:25:04.586Z,101992.48
2018-12-27T07:27:51.083Z,101998.58
2018-12-27T07:30:37.722Z,101995.45
2018-12-27T07:33:24.227Z,101996.69
2018-12-27T07:36:10.876Z,101991.41
2018-12-27T07:38:57.310Z,101990.40
2018-12-27T07:41:43.698Z,101993.86
2018-12-27T07:44:10.417Z,101987.62
2018-12-27T07:46:37.377Z,101994.67
2018-12-27T07:49:23.866Z,101995.71
2018-12-27T07:52:10.490Z,101998.11
2018-12-27T07:57:11.242Z,101986.20
2018-12-27T07:59:39.689Z,101986.20
2018-12-27T08:02:06.663Z,101987.05
2018-12-27T08:04:53.270Z,101991.41
2018-12-27T08:07:39.897Z,101992.58
2018-12-27T08:10:26.325Z,102001.53
2018-12-27T08:12:52.950Z,102002.45
2018-12-27T08:15:39.979Z,101995.12
2018-12-27T08:18:26.476Z,101990.75
2018-12-27T08:20:53.321Z,101983.48
2018-12-27T08:23:20.128Z,101984.95
2018-12-27T08:25:46.758Z,102008.57
2018-12-27T08:28:33.391Z,102013.27
2018-12-27T08:31:20.176Z,102003.39
2018-12-27T08:33:47.251Z,102005.83
2018-12-27T08:36:33.603Z,101999.30
2018-12-27T08:39:20.614Z,102000.19
2018-12-27T08:42:07.418Z,101997.05
2018-12-27T08:44:54.024Z,101997.57
2018-12-27T08:47:20.827Z,101991.89
2018-12-27T08:49:48.024Z,101995.39
2018-12-27T08:52:34.778Z,101994.44
2018-12-27T08:55:21.404Z,101998.06
2018-12-27T08:58:08.237Z,101995.98
2018-12-27T09:00:54.597Z,101996.34
2018-12-27T09:05:54.349Z,101994.70
2018-12-27T09:08:22.345Z,101994.31
2018-12-27T09:10:49.315Z,101990.76
2018-12-27T09:13:17.023Z,101992.06
2018-12-27T09:16:03.606Z,101986.32
2018-12-27T09:18:50.231Z,101986.84
2018-12-27T09:23:49.812Z,101989.91
2018-12-27T09:26:16.600Z,101989.45
2018-12-27T09:28:43.324Z,101981.66
2018-12-27T09:31:30.395Z,101983.26
2018-12-27T09:33:57.111Z,101982.83
2018-12-27T09:36:43.477Z,101985.08
2018-12-27T09:41:43.331Z,101984.14
2018-12-27T09:44:30.077Z,101985.96
2018-12-27T09:47:16.744Z,101994.38
2018-12-27T09:50:03.305Z,101983.81
2018-12-27T09:52:49.809Z,101985.11
2018-12-27T09:58:51.661Z,101977.67
2018-12-27T10:01:38.138Z,101981.75
2018-12-27T10:04:24.543Z,101975.26
2018-12-27T10:09:24.065Z,101965.28
2018-12-27T10:12:10.753Z,101957.38
2018-12-27T10:14:57.466Z,101961.84
2018-12-27T10:17:24.768Z,101963.61
2018-12-27T10:20:11.838Z,101953.89
2018-12-27T10:22:58.425Z,101949.70
2018-12-27T10:25:25.861Z,101935.77
2018-12-27T10:28:12.282Z,101937.05
2018-12-27T10:30:39.016Z,101931.92
2018-12-27T10:33:47.111Z,101922.47
2018-12-27T10:36:33.468Z,101919.46
2018-12-27T10:39:06.224Z,101919.03
2018-12-27T10:41:32.960Z,101927.38
2018-12-27T10:43:59.587Z,101924.34
2018-12-27T10:46:26.276Z,101922.50
2018-12-27T10:48:53.000Z,101919.46
2018-12-27T10:51:39.875Z,101915.69
2018-12-27T10:54:07.107Z,101916.96
2018-12-27T10:56:34.313Z,101910.44
2018-12-27T10:59:14.694Z,101909.98
2018-12-27T11:02:01.057Z,101907.31
2018-12-27T11:05:09.667Z,101907.09
2018-12-27T11:07:56.301Z,101899.73
2018-12-27T11:13:15.747Z,101897.23
2018-12-27T11:15:42.469Z,101897.17
2018-12-27T11:18:09.095Z,101897.13
2018-12-27T11:20:55.509Z,101890.14
2018-12-27T11:23:22.145Z,101887.64
2018-12-27T11:25:48.905Z,101889.37
2018-12-27T11:30:48.518Z,101880.17
2018-12-27T11:33:15.284Z,101874.97
2018-12-27T11:36:01.735Z,101867.94
2018-12-27T11:38:28.377Z,101866.26
2018-12-27T11:41:14.864Z,101868.94
2018-12-27T11:44:01.275Z,101862.47
2018-12-27T11:49:00.784Z,101854.78
2018-12-27T11:51:27.410Z,101850.97
2018-12-27T11:56:46.561Z,101851.94
2018-12-27T11:59:33.045Z,101857.97
2018-12-27T12:01:59.745Z,101852.73
2018-12-27T12:04:46.237Z,101859.27
2018-12-27T12:07:32.591Z,101850.97
2018-12-27T12:10:19.308Z,101861.97
2018-12-27T12:13:05.936Z,101863.34
2018-12-27T12:15:52.380Z,101862.44
2018-12-27T12:18:39.036Z,101862.03
2018-12-27T12:23:38.993Z,101863.78
2018-12-27T12:26:25.543Z,101857.28
2018-12-27T12:29:12.035Z,101862.87
2018-12-27T12:31:39.264Z,101856.78
2018-12-27T12:34:25.612Z,101853.41
2018-12-27T12:37:33.442Z,101853.41
2018-12-27T12:40:19.820Z,101861.13
2018-12-27T12:43:06.313Z,101859.40
2018-12-27T12:45:52.662Z,101857.53
2018-12-27T12:51:12.664Z,101858.79
2018-12-27T12:53:39.372Z,101853.30
2018-12-27T12:56:06.704Z,101855.41
2018-12-27T12:58:53.119Z,101850.97
2018-12-27T13:01:39.469Z,101846.98
2018-12-27T13:04:19.489Z,101844.02
2018-12-27T13:07:05.864Z,101845.41
2018-12-27T13:09:52.558Z,101839.28
2018-12-27T13:12:19.294Z,101847.95
2018-12-27T13:15:06.055Z,101843.13
2018-12-27T13:17:52.736Z,101840.53
2018-12-27T13:20:19.525Z,101840.52
2018-12-27T13:23:05.878Z,101842.73
2018-12-27T13:25:52.255Z,101843.60
2018-12-27T13:28:19.003Z,101846.27
2018-12-27T13:30:45.736Z,101840.12
2018-12-27T13:33:32.236Z,101843.15
2018-12-27T13:36:25.212Z,101837.09
2018-12-27T13:38:47.311Z,101839.77
2018-12-27T13:41:33.810Z,101835.77
2018-12-27T13:44:20.440Z,101838.05
2018-12-27T13:47:06.864Z,101838.03
2018-12-27T13:49:53.317Z,101839.84
2018-12-27T13:52:20.052Z,101839.34
2018-12-27T13:55:06.495Z,101830.53
2018-12-27T13:57:33.131Z,101837.52
2018-12-27T14:00:19.448Z,101839.75
2018-12-27T14:03:05.802Z,101847.59
2018-12-27T14:05:32.565Z,101850.63
2018-12-27T14:08:19.053Z,101846.77
2018-12-27T14:11:05.502Z,101840.61
2018-12-27T14:13:51.859Z,101836.36
2018-12-27T14:16:38.604Z,101838.08
2018-12-27T14:19:24.963Z,101843.30
2018-12-27T14:22:11.687Z,101845.04
2018-12-27T14:24:58.318Z,101849.45
2018-12-27T14:30:18.092Z,101841.55
2018-12-27T14:32:45.250Z,101839.81
2018-12-27T14:35:31.621Z,101840.22
2018-12-27T14:38:18.148Z,101839.34
2018-12-27T14:41:04.509Z,101838.50
2018-12-27T14:43:50.987Z,101844.20
2018-12-27T14:46:37.356Z,101842.81
2018-12-27T14:49:23.882Z,101838.92
2018-12-27T14:52:10.231Z,101838.03
2018-12-27T14:57:10.328Z,101837.52
2018-12-27T14:59:56.811Z,101839.99
2018-12-27T15:02:43.486Z,101841.33
2018-12-27T15:05:30.522Z,101839.16
2018-12-27T15:07:57.230Z,101840.12
2018-12-27T15:10:43.661Z,101847.43
2018-12-27T15:13:30.020Z,101839.99
2018-12-27T15:16:16.470Z,101839.16
2018-12-27T15:19:03.075Z,101844.33
2018-12-27T15:24:02.867Z,101837.74
2018-12-27T15:26:49.302Z,101832.59
2018-12-27T15:29:35.650Z,101836.48
2018-12-27T15:32:22.097Z,101830.31
2018-12-27T15:35:08.447Z,101834.70
2018-12-27T15:37:55.052Z,101840.86
2018-12-27T15:40:41.415Z,101838.27
2018-12-27T15:48:53.947Z,101828.25
2018-12-27T15:51:20.793Z,101826.55
2018-12-27T15:54:07.568Z,101828.72
2018-12-27T15:56:34.642Z,101824.33
2018-12-27T15:59:01.273Z,101819.86
2018-12-27T16:01:47.723Z,101821.28
2018-12-27T16:04:34.453Z,101817.30
2018-12-27T16:10:43.480Z,101816.05
2018-12-27T16:13:30.451Z,101814.75
2018-12-27T16:18:31.020Z,101813.44
2018-12-27T16:21:17.653Z,101819.55
2018-12-27T16:24:04.241Z,101818.72
2018-12-27T16:26:31.709Z,101824.44
2018-12-27T16:28:58.688Z,101825.30
2018-12-27T16:31:25.766Z,101826.26
2018-12-27T16:34:12.488Z,101831.03
2018-12-27T16:36:39.124Z,101824.92
2018-12-27T16:39:25.882Z,101819.27
2018-12-27T16:42:12.381Z,101826.73
2018-12-27T16:44:39.277Z,101814.05
2018-12-27T16:47:26.000Z,101824.95
2018-12-27T16:50:12.606Z,101822.39
2018-12-27T16:52:39.442Z,101817.62
2018-12-27T16:55:06.329Z,101814.09
2018-12-27T16:57:52.989Z,101808.94
2018-12-27T17:00:39.349Z,101811.53
2018-12-27T17:03:25.858Z,101801.04
2018-12-27T17:06:12.231Z,101807.59
2018-12-27T17:08:58.827Z,101802.81
2018-12-27T17:11:45.255Z,101807.16
2018-12-27T17:14:12.177Z,101798.92
2018-12-27T17:16:38.952Z,101805.47
2018-12-27T17:19:25.436Z,101805.45
2018-12-27T17:22:12.840Z,101794.97
2018-12-27T17:27:12.573Z,101791.58
2018-12-27T17:29:59.461Z,101793.28
2018-12-27T17:32:45.812Z,101795.90
2018-12-27T17:38:05.251Z,101794.22
2018-12-27T17:40:51.977Z,101799.85
2018-12-27T17:43:38.482Z,101792.41
2018-12-27T17:46:05.185Z,101791.56
2018-12-27T17:48:51.556Z,101791.98
2018-12-27T17:51:38.054Z,101782.87
2018-12-27T17:54:04.795Z,101782.92
2018-12-27T17:56:51.208Z,101789.51
2018-12-27T17:59:37.579Z,101786.86
2018-12-27T18:02:24.071Z,101776.81
2018-12-27T18:04:50.949Z,101775.49
2018-12-27T18:07:37.365Z,101773.78
2018-12-27T18:10:24.320Z,101784.64
2018-12-27T18:15:23.570Z,101778.13
2018-12-27T18:17:50.618Z,101787.23
2018-12-27T18:20:17.420Z,101784.59
2018-12-27T18:23:03.774Z,101790.33
2018-12-27T18:25:30.547Z,101786.39
2018-12-27T18:28:16.813Z,101793.34
2018-12-27T18:31:03.443Z,101795.59
2018-12-27T18:33:49.818Z,101782.97
2018-12-27T18:36:36.225Z,101779.00
2018-12-27T18:39:44.226Z,101783.36
2018-12-27T18:44:44.455Z,101782.94
2018-12-27T18:47:11.191Z,101784.69
2018-12-27T18:52:33.335Z,101790.77
2018-12-27T18:55:00.192Z,101786.45
2018-12-27T18:57:26.918Z,101790.03
2018-12-27T18:59:54.770Z,101795.20
2018-12-27T19:02:21.600Z,101790.81
2018-12-27T19:04:48.360Z,101798.61
2018-12-27T19:07:15.303Z,101792.48
2018-12-27T19:09:42.026Z,101797.72
2018-12-27T19:12:45.207Z,101796.85
2018-12-27T19:15:15.155Z,101798.50
2018-12-27T19:17:50.176Z,101798.23
2018-12-27T19:20:16.912Z,101800.78
2018-12-27T19:22:51.991Z,101795.13
2018-12-27T19:25:18.896Z,101799.91
2018-12-27T19:27:45.535Z,101808.22
2018-12-27T19:30:12.399Z,101805.14
2018-12-27T19:32:39.184Z,101797.29
2018-12-27T19:35:05.902Z,101798.61
2018-12-27T19:40:25.641Z,101806.48
2018-12-27T19:43:12.181Z,101805.63
2018-12-27T19:45:58.941Z,101811.28
2018-12-27T19:48:26.790Z,101808.71
2018-12-27T19:50:53.520Z,101810.86
2018-12-27T19:53:40.239Z,101810.38
2018-12-27T19:56:26.484Z,101806.45
2018-12-27T19:59:13.273Z,101813.90
2018-12-27T20:01:59.707Z,101818.72
2018-12-27T20:04:46.159Z,101813.84
2018-12-27T20:07:12.919Z,101821.27
2018-12-27T20:09:59.348Z,101820.86
2018-12-27T20:12:45.777Z,101814.66
2018-12-27T20:15:25.823Z,101814.30
2018-12-27T20:18:12.181Z,101814.66
2018-12-27T20:20:58.751Z,101814.23
2018-12-27T20:23:45.111Z,101816.41
2018-12-27T20:26:31.645Z,101825.54
2018-12-27T20:31:45.100Z,101815.86
2018-12-27T20:34:11.731Z,101826.72
2018-12-27T20:36:58.156Z,101818.92
2018-12-27T20:39:44.774Z,101817.59
2018-12-27T20:42:31.277Z,101815.91
2018-12-27T20:44:57.905Z,101821.16
2018-12-27T20:47:44.648Z,101818.11
2018-12-27T20:50:11.279Z,101820.19
2018-12-27T20:52:57.747Z,101821.23
2018-12-27T20:55:44.143Z,101815.91
2018-12-27T20:58:30.829Z,101807.67
2018-12-27T21:00:57.664Z,101799.42
2018-12-27T21:03:44.144Z,101804.17
2018-12-27T21:06:30.548Z,101808.08
2018-12-27T21:08:57.244Z,101805.38
2018-12-27T21:11:43.768Z,101801.08
2018-12-27T21:14:30.609Z,101792.83
2018-12-27T21:16:57.608Z,101794.50
2018-12-27T21:19:24.522Z,101794.12
2018-12-27T21:22:10.932Z,101800.55
2018-12-27T21:24:58.134Z,101789.67
2018-12-27T21:27:26.620Z,101795.34
2018-12-27T21:30:12.995Z,101791.75
2018-12-27T21:32:40.030Z,101784.40
2018-12-27T21:35:26.397Z,101788.73
2018-12-27T21:38:13.180Z,101786.98
2018-12-27T21:40:59.549Z,101779.97
2018-12-27T21:46:18.259Z,101774.70
2018-12-27T21:49:04.768Z,101771.68
2018-12-27T21:51:51.103Z,101776.00
2018-12-27T21:57:10.127Z,101780.83
2018-12-27T21:59:37.676Z,101786.42
2018-12-27T22:02:06.294Z,101781.11
2018-12-27T22:04:32.922Z,101775.92
2018-12-27T22:06:59.910Z,101770.64
2018-12-27T22:09:26.766Z,101769.41
2018-12-27T22:11:53.939Z,101768.97
2018-12-27T22:15:01.971Z,101769.73
2018-12-27T22:17:28.665Z,101757.50
2018-12-27T22:19:55.311Z,101754.56
2018-12-27T22:22:22.543Z,101749.77
2018-12-27T22:24:49.177Z,101754.97
2018-12-27T22:27:57.159Z,101755.86
2018-12-27T22:30:43.512Z,101759.25
2018-12-27T22:33:30.115Z,101748.78
2018-12-27T22:36:16.473Z,101757.50
2018-12-27T22:38:43.298Z,101747.56
2018-12-27T22:41:29.651Z,101740.61
2018-12-27T22:44:16.394Z,101742.80
2018-12-27T22:46:43.134Z,101744.53
2018-12-27T22:49:10.197Z,101745.84
2018-12-27T22:59:48.375Z,101761.11
2018-12-27T23:02:15.535Z,101751.52
2018-12-27T23:05:02.015Z,101761.98
2018-12-27T23:07:48.502Z,101759.39
2018-12-27T23:10:15.247Z,101749.78
2018-12-27T23:13:01.947Z,101749.33
2018-12-27T23:15:28.587Z,101755.55
2018-12-27T23:17:56.112Z,101752.48
2018-12-27T23:22:57.116Z,101752.46
2018-12-27T23:25:23.847Z,101752.89
2018-12-27T23:27:50.646Z,101752.89
2018-12-27T23:30:17.377Z,101745.87
2018-12-27T23:33:04.258Z,101752.83
2018-12-27T23:35:50.611Z,101746.29
2018-12-27T23:38:37.044Z,101732.34
2018-12-27T23:41:23.291Z,101730.66
2018-12-27T23:46:22.899Z,101725.86
2018-12-27T23:48:49.527Z,101724.15
2018-12-27T23:53:49.139Z,101715.91
2018-12-27T23:56:15.771Z,101713.29
2018-12-27T23:58:42.741Z,101706.29
